Los Alamitos Army Air Field Los Alamitos US
ICAO: KSLI
IATA: SLI
Category: Medium
Scheduled Services: No

Elevation: 32 ft
TransAlt. 18000 ft.

Airport Communications:
SOCAL APP/DEP:124.65
AFLD OPS ADVSY SVC:126.2
GND:126.95
AASF OPS:41.5
PMSV METRO:23.98
ARCOM OPS:139.05
TWR:123.85

KSLI Zoom In..

If you have problems with the map follow the link
https://www.worldairports.se/pages/airport.php?
ICAO=KSLI

Runways:

(A) RW 04L length 5900 ft width 150 ft
---- / hdg 40

(B) RW 04R length 8000 ft width 200 ft
---- / hdg 40

(C) RW 22L length 8000 ft width 200 ft
---- / hdg 220

(D) RW 22R length 5900 ft width 150 ft
---- / hdg 220

Location; KSLI
Day. 18 / Time. 06.58 Zulu
* Altimeter: 30.04
* Temperature: 15° c. 59°f.
* Wind from: 000° Speed 00 kn.
Dewpoint: 10° c.
Visibility: 10 Statute Miles.
Clouds: Clear (automated report).

KSLI 180658Z AUTO 00000KT 10SM CLR 15/10 A3004 RMK AO2 SLP175 T01480096


Wind - Calm.

 
 
jpsmedia.com for Web Design worldairports.se 2018   terms of use